Time,TemperatureF,DewpointF,PressureIn,WindDirection,WindDirectionDegrees,WindSpeedMPH,WindSpeedGustMPH,Humidity,HourlyPrecipIn,Conditions,Clouds,dailyrainin,SoftwareType,DateUTC
2013-02-24 00:00:00,43.0,37.0,-100.00,SSE,148,2.0,-999.0,78,0.00,,,-99.99,,2013-02-24 08:00:00,
2013-02-24 00:22:00,43.0,37.0,-100.00,SSE,148,2.0,-999.0,78,0.00,,,-99.99,,2013-02-24 08:22:00,
2013-02-24 00:32:00,43.0,37.0,-100.00,SSE,148,2.0,-999.0,78,0.00,,,-99.99,,2013-02-24 08:32:00,
2013-02-24 00:42:00,43.0,37.0,-100.00,SSE,148,2.0,-999.0,78,0.00,,,-99.99,,2013-02-24 08:42:00,
2013-02-24 00:53:00,43.0,37.0,-100.00,SSE,148,2.0,-999.0,78,0.00,,,-99.99,,2013-02-24 08:53:00,
2013-02-24 01:00:00,43.0,36.0,-100.00,WNW,292,2.0,-999.0,78,0.00,,,-99.99,,2013-02-24 09:00:00,
2013-02-24 01:22:00,43.0,36.0,-100.00,WNW,292,2.0,-999.0,78,0.00,,,-99.99,,2013-02-24 09:22:00,
2013-02-24 01:32:00,43.0,36.0,-100.00,WNW,292,2.0,-999.0,78,0.00,,,-99.99,,2013-02-24 09:32:00,
2013-02-24 01:42:00,43.0,36.0,-100.00,WNW,292,2.0,-999.0,78,0.00,,,-99.99,,2013-02-24 09:42:00,
2013-02-24 01:52:00,43.0,36.0,-100.00,WNW,292,2.0,-999.0,78,0.00,,,-99.99,,2013-02-24 09:52:00,
2013-02-24 02:00:00,39.0,34.0,-100.00,South,187,2.0,-999.0,81,0.00,,,-99.99,,2013-02-24 10:00:00,
2013-02-24 02:22:00,39.0,34.0,-100.00,South,187,2.0,-999.0,81,0.00,,,-99.99,,2013-02-24 10:22:00,
2013-02-24 02:32:00,39.0,34.0,-100.00,South,187,2.0,-999.0,81,0.00,,,-99.99,,2013-02-24 10:32:00,
2013-02-24 02:42:00,39.0,34.0,-100.00,South,187,2.0,-999.0,81,0.00,,,-99.99,,2013-02-24 10:42:00,
2013-02-24 02:52:00,39.0,34.0,-100.00,South,187,2.0,-999.0,81,0.00,,,-99.99,,2013-02-24 10:52:00,
2013-02-24 03:00:00,36.0,32.0,-100.00,SE,141,4.0,-999.0,83,0.00,,,-99.99,,2013-02-24 11:00:00,
2013-02-24 03:22:00,36.0,32.0,-100.00,SE,141,4.0,-999.0,83,0.00,,,-99.99,,2013-02-24 11:22:00,
2013-02-24 03:32:00,36.0,32.0,-100.00,SE,141,4.0,-999.0,83,0.00,,,-99.99,,2013-02-24 11:32:00,
2013-02-24 03:42:00,36.0,32.0,-100.00,SE,141,4.0,-999.0,83,0.00,,,-99.99,,2013-02-24 11:42:00,
2013-02-24 03:52:00,36.0,32.0,-100.00,SE,141,4.0,-999.0,83,0.00,,,-99.99,,2013-02-24 11:52:00,
2013-02-24 04:00:00,36.0,31.0,-100.00,SE,140,4.0,-999.0,84,0.00,,,-99.99,,2013-02-24 12:00:00,
2013-02-24 04:22:00,36.0,31.0,-100.00,SE,140,4.0,-999.0,84,0.00,,,-99.99,,2013-02-24 12:22:00,
2013-02-24 04:32:00,36.0,31.0,-100.00,SE,140,4.0,-999.0,84,0.00,,,-99.99,,2013-02-24 12:32:00,
2013-02-24 04:46:00,36.0,31.0,-100.00,SE,140,4.0,-999.0,84,0.00,,,-99.99,,2013-02-24 12:46:00,
2013-02-24 04:55:00,36.0,31.0,-100.00,SE,140,4.0,-999.0,84,0.00,,,-99.99,,2013-02-24 12:55:00,
2013-02-24 05:00:00,36.0,32.0,-100.00,ESE,115,3.0,-999.0,85,0.00,,,-99.99,,2013-02-24 13:00:00,
2013-02-24 05:27:00,36.0,32.0,-100.00,ESE,115,3.0,-999.0,85,0.00,,,-99.99,,2013-02-24 13:27:00,
2013-02-24 05:35:00,36.0,32.0,-100.00,ESE,115,3.0,-999.0,85,0.00,,,-99.99,,2013-02-24 13:35:00,
2013-02-24 05:45:00,36.0,32.0,-100.00,ESE,115,3.0,-999.0,85,0.00,,,-99.99,,2013-02-24 13:45:00,
2013-02-24 05:54:00,36.0,32.0,-100.00,ESE,115,3.0,-999.0,85,0.00,,,-99.99,,2013-02-24 13:54:00,
2013-02-24 06:00:00,34.0,31.0,-100.00,ESE,121,4.0,-999.0,87,0.00,,,-99.99,,2013-02-24 14:00:00,
2013-02-24 06:25:00,34.0,31.0,-100.00,ESE,121,4.0,-999.0,87,0.00,,,-99.99,,2013-02-24 14:25:00,
2013-02-24 06:34:00,34.0,31.0,-100.00,ESE,121,4.0,-999.0,87,0.00,,,-99.99,,2013-02-24 14:34:00,
2013-02-24 06:45:00,34.0,31.0,-100.00,ESE,121,4.0,-999.0,87,0.00,,,-99.99,,2013-02-24 14:45:00,
2013-02-24 06:53:00,34.0,31.0,-100.00,ESE,121,4.0,-999.0,87,0.00,,,-99.99,,2013-02-24 14:53:00,
2013-02-24 07:00:00,35.0,32.0,-100.00,SE,140,4.0,-999.0,86,0.00,,,-99.99,,2013-02-24 15:00:00,
2013-02-24 07:24:00,35.0,32.0,-100.00,SE,140,4.0,-999.0,86,0.00,,,-99.99,,2013-02-24 15:24:00,
2013-02-24 07:32:00,35.0,32.0,-100.00,SE,140,4.0,-999.0,86,0.00,,,-99.99,,2013-02-24 15:32:00,
2013-02-24 07:42:00,35.0,32.0,-100.00,SE,140,4.0,-999.0,86,0.00,,,-99.99,,2013-02-24 15:42:00,
2013-02-24 07:52:00,35.0,32.0,-100.00,SE,140,4.0,-999.0,86,0.00,,,-99.99,,2013-02-24 15:52:00,
2013-02-24 08:00:00,37.0,32.0,-100.00,ESE,122,4.0,-999.0,83,0.00,,,-99.99,,2013-02-24 16:00:00,
2013-02-24 08:22:00,37.0,32.0,-100.00,ESE,122,4.0,-999.0,83,0.00,,,-99.99,,2013-02-24 16:22:00,
2013-02-24 08:32:00,37.0,32.0,-100.00,ESE,122,4.0,-999.0,83,0.00,,,-99.99,,2013-02-24 16:32:00,
2013-02-24 08:42:00,37.0,32.0,-100.00,ESE,122,4.0,-999.0,83,0.00,,,-99.99,,2013-02-24 16:42:00,
2013-02-24 08:52:00,37.0,32.0,-100.00,ESE,122,4.0,-999.0,83,0.00,,,-99.99,,2013-02-24 16:52:00,
2013-02-24 09:00:00,44.0,33.0,-100.00,SSE,165,5.0,-999.0,65,0.00,,,-99.99,,2013-02-24 17:00:00,
2013-02-24 09:22:00,44.0,33.0,-100.00,SSE,165,5.0,-999.0,65,0.00,,,-99.99,,2013-02-24 17:22:00,
2013-02-24 09:32:00,44.0,33.0,-100.00,SSE,165,5.0,-999.0,65,0.00,,,-99.99,,2013-02-24 17:32:00,
2013-02-24 09:42:00,44.0,33.0,-100.00,SSE,165,5.0,-999.0,65,0.00,,,-99.99,,2013-02-24 17:42:00,
2013-02-24 09:52:00,44.0,33.0,-100.00,SSE,165,5.0,-999.0,65,0.00,,,-99.99,,2013-02-24 17:52:00,
2013-02-24 10:00:00,47.0,33.0,-100.00,South,187,6.0,-999.0,56,0.00,,,-99.99,,2013-02-24 18:00:00,
2013-02-24 10:22:00,47.0,33.0,-100.00,South,187,6.0,-999.0,56,0.00,,,-99.99,,2013-02-24 18:22:00,
2013-02-24 10:32:00,47.0,33.0,-100.00,South,187,6.0,-999.0,56,0.00,,,-99.99,,2013-02-24 18:32:00,
2013-02-24 10:42:00,47.0,33.0,-100.00,South,187,6.0,-999.0,56,0.00,,,-99.99,,2013-02-24 18:42:00,
2013-02-24 10:52:00,47.0,33.0,-100.00,South,187,6.0,-999.0,56,0.00,,,-99.99,,2013-02-24 18:52:00,
2013-02-24 11:00:00,50.0,31.0,-100.00,SSW,210,10.0,-999.0,48,0.00,,,-99.99,,2013-02-24 19:00:00,
2013-02-24 11:22:00,50.0,31.0,-100.00,SSW,210,10.0,-999.0,48,0.00,,,-99.99,,2013-02-24 19:22:00,
2013-02-24 11:32:00,50.0,31.0,-100.00,SSW,210,10.0,-999.0,48,0.00,,,-99.99,,2013-02-24 19:32:00,
2013-02-24 11:42:00,50.0,31.0,-100.00,SSW,210,10.0,-999.0,48,0.00,,,-99.99,,2013-02-24 19:42:00,
2013-02-24 11:52:00,50.0,31.0,-100.00,SSW,210,10.0,-999.0,48,0.00,,,-99.99,,2013-02-24 19:52:00,
2013-02-24 12:00:00,53.0,31.0,-100.00,SSW,197,10.0,-999.0,43,0.00,,,-99.99,,2013-02-24 20:00:00,
2013-02-24 12:22:00,53.0,31.0,-100.00,SSW,197,10.0,-999.0,43,0.00,,,-99.99,,2013-02-24 20:22:00,
2013-02-24 12:32:00,53.0,31.0,-100.00,SSW,197,10.0,-999.0,43,0.00,,,-99.99,,2013-02-24 20:32:00,
2013-02-24 12:42:00,53.0,31.0,-100.00,SSW,197,10.0,-999.0,43,0.00,,,-99.99,,2013-02-24 20:42:00,
2013-02-24 12:52:00,53.0,31.0,-100.00,SSW,197,10.0,-999.0,43,0.00,,,-99.99,,2013-02-24 20:52:00,
2013-02-24 13:00:00,55.0,30.0,-100.00,South,185,10.0,-999.0,37,0.00,,,-99.99,,2013-02-24 21:00:00,
2013-02-24 13:21:00,55.0,30.0,-100.00,South,185,10.0,-999.0,37,0.00,,,-99.99,,2013-02-24 21:21:00,
2013-02-24 13:32:00,55.0,30.0,-100.00,South,185,10.0,-999.0,37,0.00,,,-99.99,,2013-02-24 21:32:00,
2013-02-24 13:42:00,55.0,30.0,-100.00,South,185,10.0,-999.0,37,0.00,,,-99.99,,2013-02-24 21:42:00,
2013-02-24 13:52:00,55.0,30.0,-100.00,South,185,10.0,-999.0,37,0.00,,,-99.99,,2013-02-24 21:52:00,
2013-02-24 14:00:00,57.0,29.0,-100.00,SSW,198,5.0,-999.0,34,0.00,,,-99.99,,2013-02-24 22:00:00,
2013-02-24 14:22:00,57.0,29.0,-100.00,SSW,198,5.0,-999.0,34,0.00,,,-99.99,,2013-02-24 22:22:00,
2013-02-24 14:32:00,57.0,29.0,-100.00,SSW,198,5.0,-999.0,34,0.00,,,-99.99,,2013-02-24 22:32:00,
2013-02-24 14:42:00,57.0,29.0,-100.00,SSW,198,5.0,-999.0,34,0.00,,,-99.99,,2013-02-24 22:42:00,
2013-02-24 14:52:00,57.0,29.0,-100.00,SSW,198,5.0,-999.0,34,0.00,,,-99.99,,2013-02-24 22:52:00,
2013-02-24 15:00:00,59.0,28.0,-100.00,WSW,253,2.0,-999.0,30,0.00,,,-99.99,,2013-02-24 23:00:00,
2013-02-24 15:22:00,59.0,28.0,-100.00,WSW,253,2.0,-999.0,30,0.00,,,-99.99,,2013-02-24 23:22:00,
2013-02-24 15:32:00,59.0,28.0,-100.00,WSW,253,2.0,-999.0,30,0.00,,,-99.99,,2013-02-24 23:32:00,
2013-02-24 15:42:00,59.0,28.0,-100.00,WSW,253,2.0,-999.0,30,0.00,,,-99.99,,2013-02-24 23:42:00,
2013-02-24 15:52:00,59.0,28.0,-100.00,WSW,253,2.0,-999.0,30,0.00,,,-99.99,,2013-02-24 23:52:00,
2013-02-24 16:00:00,60.0,30.0,-100.00,ESE,103,4.0,-999.0,31,0.00,,,-99.99,,2013-02-25 00:00:00,
2013-02-24 16:22:00,60.0,30.0,-100.00,ESE,103,4.0,-999.0,31,0.00,,,-99.99,,2013-02-25 00:22:00,
2013-02-24 16:32:00,60.0,30.0,-100.00,ESE,103,4.0,-999.0,31,0.00,,,-99.99,,2013-02-25 00:32:00,
2013-02-24 16:42:00,60.0,30.0,-100.00,ESE,103,4.0,-999.0,31,0.00,,,-99.99,,2013-02-25 00:42:00,
2013-02-24 16:52:00,60.0,30.0,-100.00,ESE,103,4.0,-999.0,31,0.00,,,-99.99,,2013-02-25 00:52:00,
2013-02-24 17:00:00,61.0,31.0,-100.00,SSW,206,3.0,-999.0,32,0.00,,,-99.99,,2013-02-25 01:00:00,
2013-02-24 17:21:00,61.0,31.0,-100.00,SSW,206,3.0,-999.0,32,0.00,,,-99.99,,2013-02-25 01:21:00,
2013-02-24 17:32:00,61.0,31.0,-100.00,SSW,206,3.0,-999.0,32,0.00,,,-99.99,,2013-02-25 01:32:00,
2013-02-24 17:42:00,61.0,31.0,-100.00,SSW,206,3.0,-999.0,32,0.00,,,-99.99,,2013-02-25 01:42:00,
2013-02-24 17:52:00,61.0,31.0,-100.00,SSW,206,3.0,-999.0,32,0.00,,,-99.99,,2013-02-25 01:52:00,
2013-02-24 18:00:00,57.0,33.0,-100.00,NW,313,4.0,-999.0,41,0.00,,,-99.99,,2013-02-25 02:00:00,
2013-02-24 18:21:00,57.0,33.0,-100.00,NW,313,4.0,-999.0,41,0.00,,,-99.99,,2013-02-25 02:21:00,
2013-02-24 18:32:00,57.0,33.0,-100.00,NW,313,4.0,-999.0,41,0.00,,,-99.99,,2013-02-25 02:32:00,
2013-02-24 18:42:00,57.0,33.0,-100.00,NW,313,4.0,-999.0,41,0.00,,,-99.99,,2013-02-25 02:42:00,
2013-02-24 18:52:00,57.0,33.0,-100.00,NW,313,4.0,-999.0,41,0.00,,,-99.99,,2013-02-25 02:52:00,
2013-02-24 19:00:00,53.0,33.0,-100.00,North,352,4.0,-999.0,47,0.00,,,-99.99,,2013-02-25 03:00:00,
2013-02-24 19:21:00,53.0,33.0,-100.00,North,352,4.0,-999.0,47,0.00,,,-99.99,,2013-02-25 03:21:00,
2013-02-24 19:32:00,53.0,33.0,-100.00,North,352,4.0,-999.0,47,0.00,,,-99.99,,2013-02-25 03:32:00,
2013-02-24 19:42:00,53.0,33.0,-100.00,North,352,4.0,-999.0,47,0.00,,,-99.99,,2013-02-25 03:42:00,
2013-02-24 19:52:00,53.0,33.0,-100.00,North,352,4.0,-999.0,47,0.00,,,-99.99,,2013-02-25 03:52:00,
2013-02-24 20:00:00,47.0,34.0,-100.00,WSW,238,0.0,-999.0,61,0.00,,,-99.99,,2013-02-25 04:00:00,
2013-02-24 20:22:00,47.0,34.0,-100.00,WSW,238,0.0,-999.0,61,0.00,,,-99.99,,2013-02-25 04:22:00,
2013-02-24 20:32:00,47.0,34.0,-100.00,WSW,238,0.0,-999.0,61,0.00,,,-99.99,,2013-02-25 04:32:00,
2013-02-24 20:42:00,47.0,34.0,-100.00,WSW,238,0.0,-999.0,61,0.00,,,-99.99,,2013-02-25 04:42:00,
2013-02-24 20:52:00,47.0,34.0,-100.00,WSW,238,0.0,-999.0,61,0.00,,,-99.99,,2013-02-25 04:52:00,
2013-02-24 21:00:00,43.0,35.0,-100.00,SE,142,3.0,-999.0,72,0.00,,,-99.99,,2013-02-25 05:00:00,
2013-02-24 21:22:00,43.0,35.0,-100.00,SE,142,3.0,-999.0,72,0.00,,,-99.99,,2013-02-25 05:22:00,
2013-02-24 21:32:00,43.0,35.0,-100.00,SE,142,3.0,-999.0,72,0.00,,,-99.99,,2013-02-25 05:32:00,
2013-02-24 21:42:00,43.0,35.0,-100.00,SE,142,3.0,-999.0,72,0.00,,,-99.99,,2013-02-25 05:42:00,
2013-02-24 21:52:00,43.0,35.0,-100.00,SE,142,3.0,-999.0,72,0.00,,,-99.99,,2013-02-25 05:52:00,
2013-02-24 22:00:00,41.0,35.0,-100.00,SSE,153,2.0,-999.0,77,0.00,,,-99.99,,2013-02-25 06:00:00,
2013-02-24 22:21:00,41.0,35.0,-100.00,SSE,153,2.0,-999.0,77,0.00,,,-99.99,,2013-02-25 06:21:00,
2013-02-24 22:32:00,41.0,35.0,-100.00,SSE,153,2.0,-999.0,77,0.00,,,-99.99,,2013-02-25 06:32:00,
2013-02-24 22:42:00,41.0,35.0,-100.00,SSE,153,2.0,-999.0,77,0.00,,,-99.99,,2013-02-25 06:42:00,
2013-02-24 22:52:00,41.0,35.0,-100.00,SSE,153,2.0,-999.0,77,0.00,,,-99.99,,2013-02-25 06:52:00,
2013-02-24 23:00:00,39.0,34.0,-100.00,SE,139,3.0,-999.0,80,0.00,,,-99.99,,2013-02-25 07:00:00,
2013-02-24 23:21:00,39.0,34.0,-100.00,SE,139,3.0,-999.0,80,0.00,,,-99.99,,2013-02-25 07:21:00,
2013-02-24 23:32:00,39.0,34.0,-100.00,SE,139,3.0,-999.0,80,0.00,,,-99.99,,2013-02-25 07:32:00,
2013-02-24 23:42:00,39.0,34.0,-100.00,SE,139,3.0,-999.0,80,0.00,,,-99.99,,2013-02-25 07:42:00,
2013-02-24 23:52:00,39.0,34.0,-100.00,SE,139,3.0,-999.0,80,0.00,,,-99.99,,2013-02-25 07:52:00,